createdAt,value
2017-08-24T00:02:02.818Z,100772
2017-08-24T00:04:32.694Z,100772
2017-08-24T00:07:03.042Z,100765
2017-08-24T00:09:32.933Z,100759
2017-08-24T00:12:02.824Z,100748
2017-08-24T00:14:33.194Z,100745
2017-08-24T00:17:03.054Z,100740
2017-08-24T00:19:33.280Z,100730
2017-08-24T00:22:03.283Z,100726
2017-08-24T00:24:33.566Z,100725
2017-08-24T00:27:03.496Z,100716
2017-08-24T00:29:33.645Z,100715
2017-08-24T00:32:03.495Z,100723
2017-08-24T00:34:33.703Z,100705
2017-08-24T00:37:03.553Z,100717
2017-08-24T00:39:33.422Z,100713
2017-08-24T00:42:03.719Z,100718
2017-08-24T00:44:33.603Z,100716
2017-08-24T00:47:03.855Z,100718
2017-08-24T00:49:33.732Z,100711
2017-08-24T00:52:03.602Z,100708
2017-08-24T00:54:33.802Z,100701
2017-08-24T00:57:03.677Z,100703
2017-08-24T00:59:33.546Z,100692
2017-08-24T01:02:03.730Z,100693
2017-08-24T01:04:33.593Z,100683
2017-08-24T01:07:03.491Z,100683
2017-08-24T01:09:33.637Z,100675
2017-08-24T01:12:03.483Z,100674
2017-08-24T01:14:33.666Z,100669
2017-08-24T01:17:03.556Z,100666
2017-08-24T01:19:33.853Z,100664
2017-08-24T01:22:03.712Z,100669
2017-08-24T01:24:33.575Z,100657
2017-08-24T01:27:03.806Z,100661
2017-08-24T01:29:33.674Z,100661
2017-08-24T01:32:03.567Z,100669
2017-08-24T01:34:33.922Z,100664
2017-08-24T01:37:03.797Z,100667
2017-08-24T01:39:33.682Z,100665
2017-08-24T01:42:03.897Z,100663
2017-08-24T01:44:33.799Z,100664
2017-08-24T01:47:03.683Z,100655
2017-08-24T01:49:33.923Z,100655
2017-08-24T01:52:03.772Z,100655
2017-08-24T01:54:33.695Z,100661
2017-08-24T01:57:04.010Z,100654
2017-08-24T01:59:33.878Z,100648
2017-08-24T02:02:04.004Z,100648
2017-08-24T02:04:33.910Z,100651
2017-08-24T02:07:04.121Z,100639
2017-08-24T02:09:33.996Z,100637
2017-08-24T02:12:04.199Z,100629
2017-08-24T02:14:34.046Z,100635
2017-08-24T02:17:04.249Z,100627
2017-08-24T02:19:34.074Z,100619
2017-08-24T02:22:04.217Z,100613
2017-08-24T02:24:34.093Z,100611
2017-08-24T02:27:04.351Z,100605
2017-08-24T02:29:34.195Z,100597
2017-08-24T02:32:04.442Z,100597
2017-08-24T02:34:34.302Z,100587
2017-08-24T02:37:04.497Z,100581
2017-08-24T02:39:34.344Z,100578
2017-08-24T02:42:04.731Z,100566
2017-08-24T02:44:34.601Z,100537
2017-08-24T02:47:04.890Z,100555
2017-08-24T02:49:34.759Z,100549
2017-08-24T02:52:04.690Z,100542
2017-08-24T02:54:34.971Z,100542
2017-08-24T02:57:04.842Z,100541
2017-08-24T02:59:35.115Z,100533
2017-08-24T03:02:05.135Z,100541
2017-08-24T03:04:35.383Z,100548
2017-08-24T03:07:05.238Z,100533
2017-08-24T03:09:35.620Z,100532
2017-08-24T03:12:05.475Z,100526
2017-08-24T03:14:35.640Z,100526
2017-08-24T03:17:05.539Z,100516
2017-08-24T03:19:35.950Z,100519
2017-08-24T03:22:05.810Z,100520
2017-08-24T03:24:35.679Z,100514
2017-08-24T03:27:05.966Z,100514
2017-08-24T03:29:35.806Z,100518
2017-08-24T03:32:05.688Z,100503
2017-08-24T03:34:35.957Z,100501
2017-08-24T03:37:05.813Z,100508
2017-08-24T03:39:35.687Z,100509
2017-08-24T03:42:05.903Z,100499
2017-08-24T03:44:35.773Z,100513
2017-08-24T03:47:05.692Z,100501
2017-08-24T03:49:35.937Z,100495
2017-08-24T03:52:05.790Z,100503
2017-08-24T03:54:35.665Z,100513
2017-08-24T03:57:05.992Z,100514
2017-08-24T03:59:35.895Z,100494
2017-08-24T04:02:06.118Z,100498
2017-08-24T04:04:36.092Z,100480
2017-08-24T04:07:06.306Z,100482
2017-08-24T04:09:36.176Z,100484
2017-08-24T04:12:06.496Z,100476
2017-08-24T04:14:36.477Z,100478
2017-08-24T04:17:06.752Z,100480
2017-08-24T04:19:36.590Z,100482
2017-08-24T04:22:06.868Z,100476
2017-08-24T04:24:36.711Z,100482
2017-08-24T04:27:06.572Z,100485
2017-08-24T04:29:36.828Z,100489
2017-08-24T04:32:06.694Z,100483
2017-08-24T04:34:36.564Z,100488
2017-08-24T04:37:06.760Z,100485
2017-08-24T04:39:36.615Z,100486
2017-08-24T04:42:06.481Z,100486
2017-08-24T04:44:36.698Z,100491
2017-08-24T04:47:06.550Z,100488
2017-08-24T04:49:36.429Z,100493
2017-08-24T04:52:06.749Z,100495
2017-08-24T04:54:36.732Z,100496
2017-08-24T04:57:06.985Z,100495
2017-08-24T04:59:36.887Z,100499
2017-08-24T05:02:07.126Z,100501
2017-08-24T05:04:36.975Z,100503
2017-08-24T05:07:07.285Z,100508
2017-08-24T05:09:37.207Z,100507
2017-08-24T05:12:07.492Z,100501
2017-08-24T05:14:37.346Z,100508
2017-08-24T05:17:07.609Z,100512
2017-08-24T05:19:37.482Z,100517
2017-08-24T05:22:07.773Z,100519
2017-08-24T05:24:37.622Z,100514
2017-08-24T05:27:07.895Z,100506
2017-08-24T05:29:37.750Z,100462
2017-08-24T05:32:07.617Z,100498
2017-08-24T05:34:37.861Z,100496
2017-08-24T05:37:07.823Z,100494
2017-08-24T05:39:38.203Z,100494
2017-08-24T05:42:08.056Z,100491
2017-08-24T05:44:38.311Z,100490
2017-08-24T05:47:08.169Z,100488
2017-08-24T05:49:38.436Z,100479
2017-08-24T05:52:08.316Z,100480
2017-08-24T05:54:38.600Z,100474
2017-08-24T05:57:08.473Z,100414
2017-08-24T05:59:38.695Z,100468
2017-08-24T06:02:08.532Z,100476
2017-08-24T06:04:39.205Z,100470
2017-08-24T06:07:09.071Z,100478
2017-08-24T06:09:39.362Z,100506
2017-08-24T06:12:09.238Z,100526
2017-08-24T06:14:39.534Z,100529
2017-08-24T06:17:09.412Z,100526
2017-08-24T06:19:39.637Z,100536
2017-08-24T06:22:09.543Z,100534
2017-08-24T06:24:39.813Z,100533
2017-08-24T06:27:09.674Z,100531
2017-08-24T06:29:39.895Z,100513
2017-08-24T06:32:09.818Z,100524
2017-08-24T06:34:39.708Z,100519
2017-08-24T06:37:09.941Z,100509
2017-08-24T06:39:39.794Z,100521
2017-08-24T06:42:09.751Z,100522
2017-08-24T06:44:40.061Z,100522
2017-08-24T06:47:09.928Z,100512
2017-08-24T06:49:39.826Z,100505
2017-08-24T06:52:10.232Z,100493
2017-08-24T06:54:40.107Z,100501
2017-08-24T06:57:10.368Z,100493
2017-08-24T06:59:40.245Z,100463
2017-08-24T07:02:10.582Z,100493
2017-08-24T07:04:40.564Z,100500
2017-08-24T07:07:10.815Z,100505
2017-08-24T07:09:40.711Z,100505
2017-08-24T07:12:10.950Z,100522
2017-08-24T07:14:40.816Z,100523
2017-08-24T07:17:10.717Z,100503
2017-08-24T07:19:40.983Z,100509
2017-08-24T07:22:10.856Z,100505
2017-08-24T07:24:40.738Z,100514
2017-08-24T07:27:10.957Z,100513
2017-08-24T07:29:40.840Z,100522
2017-08-24T07:32:10.820Z,100519
2017-08-24T07:34:41.079Z,100520
2017-08-24T07:37:10.940Z,100522
2017-08-24T07:39:40.818Z,100526
2017-08-24T07:42:11.130Z,100525
2017-08-24T07:44:41.002Z,100517
2017-08-24T07:47:11.267Z,100521
2017-08-24T07:49:41.145Z,100520
2017-08-24T07:52:11.391Z,100523
2017-08-24T07:54:41.265Z,100525
2017-08-24T07:57:11.567Z,100532
2017-08-24T07:59:41.460Z,100536
2017-08-24T08:02:11.693Z,100529
2017-08-24T08:04:41.582Z,100539
2017-08-24T08:07:11.777Z,100520
2017-08-24T08:09:41.667Z,100527
2017-08-24T08:12:11.896Z,100536
2017-08-24T08:14:41.816Z,100536
2017-08-24T08:17:11.729Z,100529
2017-08-24T08:19:41.982Z,100533
2017-08-24T08:22:11.844Z,100547
2017-08-24T08:24:41.779Z,100552
2017-08-24T08:27:13.192Z,100550
2017-08-24T08:29:43.069Z,100554
2017-08-24T08:32:13.451Z,100550
2017-08-24T08:34:43.331Z,100557
2017-08-24T08:37:13.551Z,100559
2017-08-24T08:39:43.414Z,100561
2017-08-24T08:42:13.666Z,100571
2017-08-24T08:44:43.563Z,100575
2017-08-24T08:47:14.648Z,100570
2017-08-24T08:49:44.574Z,100579
2017-08-24T08:52:14.782Z,100580
2017-08-24T08:54:44.680Z,100578
2017-08-24T08:57:15.095Z,100569
2017-08-24T08:59:45.041Z,100574
2017-08-24T09:02:15.339Z,100579
2017-08-24T09:04:45.208Z,100577
2017-08-24T09:07:15.464Z,100576
2017-08-24T09:09:45.333Z,100575
2017-08-24T09:12:15.591Z,100579
2017-08-24T09:14:45.550Z,100588
2017-08-24T09:17:15.787Z,100589
2017-08-24T09:19:45.645Z,100597
2017-08-24T09:22:15.983Z,100598
2017-08-24T09:24:45.918Z,100603
2017-08-24T09:27:15.809Z,100611
2017-08-24T09:29:46.034Z,100600
2017-08-24T09:32:15.965Z,100617
2017-08-24T09:34:46.367Z,100608
2017-08-24T09:37:16.247Z,100617
2017-08-24T09:39:46.138Z,100614
2017-08-24T09:42:16.022Z,100614
2017-08-24T09:44:45.929Z,100613
2017-08-24T09:47:15.810Z,100616
2017-08-24T09:49:45.705Z,100610
2017-08-24T09:52:15.960Z,100616
2017-08-24T09:54:45.948Z,100607
2017-08-24T09:57:15.850Z,100611
2017-08-24T09:59:46.131Z,100614
2017-08-24T10:02:16.030Z,100613
2017-08-24T10:04:46.246Z,100613
2017-08-24T10:07:16.118Z,100594
2017-08-24T10:09:46.376Z,100610
2017-08-24T10:12:16.294Z,100622
2017-08-24T10:14:46.499Z,100600
2017-08-24T10:17:16.397Z,100605
2017-08-24T10:19:46.668Z,100596
2017-08-24T10:22:16.539Z,100603
2017-08-24T10:24:46.880Z,100606
2017-08-24T10:27:16.882Z,100601
2017-08-24T10:29:47.150Z,100591
2017-08-24T10:32:17.152Z,100596
2017-08-24T10:34:47.465Z,100583
2017-08-24T10:37:17.335Z,100605
2017-08-24T10:39:47.547Z,100596
2017-08-24T10:42:17.428Z,100598
2017-08-24T10:44:47.696Z,100589
2017-08-24T10:47:17.587Z,100600
2017-08-24T10:49:47.866Z,100608
2017-08-24T10:52:17.786Z,100596
2017-08-24T10:54:48.100Z,100607
2017-08-24T10:57:18.035Z,100604
2017-08-24T10:59:48.318Z,100595
2017-08-24T11:02:18.191Z,100604
2017-08-24T11:04:48.481Z,100612
2017-08-24T11:07:18.363Z,100618
2017-08-24T11:09:48.802Z,100611
2017-08-24T11:12:18.717Z,100612
2017-08-24T11:14:49.092Z,100614
2017-08-24T11:17:18.972Z,100610
2017-08-24T11:19:48.896Z,100628
2017-08-24T11:22:19.300Z,100625
2017-08-24T11:24:49.306Z,100620
2017-08-24T11:27:19.632Z,100632
2017-08-24T11:29:49.503Z,100627
2017-08-24T11:32:19.743Z,100632
2017-08-24T11:34:49.609Z,100632
2017-08-24T11:37:19.848Z,100631
2017-08-24T11:39:49.829Z,100633
2017-08-24T11:42:20.141Z,100626
2017-08-24T11:44:50.897Z,100629
2017-08-24T11:47:21.182Z,100627
2017-08-24T11:49:51.093Z,100633
2017-08-24T11:52:21.553Z,100637
2017-08-24T11:54:51.426Z,100633
2017-08-24T11:57:21.902Z,100629
2017-08-24T11:59:51.760Z,100636
2017-08-24T12:02:22.129Z,100638
2017-08-24T12:04:52.014Z,100647
2017-08-24T12:07:22.537Z,100631
2017-08-24T12:09:52.404Z,100635
2017-08-24T12:12:22.717Z,100633
2017-08-24T12:14:52.647Z,100629
2017-08-24T12:17:22.842Z,100637
2017-08-24T12:19:52.762Z,100632
2017-08-24T12:22:22.982Z,100635
2017-08-24T12:24:52.860Z,100624
2017-08-24T12:27:22.734Z,100634
2017-08-24T12:29:52.927Z,100643
2017-08-24T12:32:22.814Z,100638
2017-08-24T12:34:52.700Z,100642
2017-08-24T12:37:23.045Z,100642
2017-08-24T12:39:52.916Z,100643
2017-08-24T12:42:22.874Z,100646
2017-08-24T12:44:53.218Z,100636
2017-08-24T12:47:23.082Z,100647
2017-08-24T12:49:53.372Z,100645
2017-08-24T12:52:23.318Z,100649
2017-08-24T12:54:53.612Z,100651
2017-08-24T12:57:23.502Z,100649
2017-08-24T12:59:53.831Z,100652
2017-08-24T13:02:23.719Z,100658
2017-08-24T13:04:53.944Z,100656
2017-08-24T13:07:23.830Z,100647
2017-08-24T13:09:53.730Z,100670
2017-08-24T13:12:24.641Z,100662
2017-08-24T13:14:54.554Z,100665
2017-08-24T13:17:24.807Z,100672
2017-08-24T13:19:54.710Z,100672
2017-08-24T13:22:25.009Z,100663
2017-08-24T13:24:54.923Z,100680
2017-08-24T13:27:24.802Z,100680
2017-08-24T13:29:55.058Z,100680
2017-08-24T13:32:24.933Z,100684
2017-08-24T13:34:54.849Z,100678
2017-08-24T13:37:25.077Z,100684
2017-08-24T13:39:54.975Z,100681
2017-08-24T13:42:25.313Z,100686
2017-08-24T13:44:55.203Z,100681
2017-08-24T13:47:25.439Z,100689
2017-08-24T13:49:55.321Z,100688
2017-08-24T13:52:25.707Z,100686
2017-08-24T13:54:55.583Z,100672
2017-08-24T13:57:25.834Z,100686
2017-08-24T13:59:55.813Z,100687
2017-08-24T14:02:26.169Z,100679
2017-08-24T14:04:56.099Z,100678
2017-08-24T14:07:26.419Z,100687
2017-08-24T14:09:56.287Z,100678
2017-08-24T14:12:26.664Z,100682
2017-08-24T14:14:56.575Z,100684
2017-08-24T14:17:26.910Z,100673
2017-08-24T14:19:56.817Z,100684
2017-08-24T14:22:27.128Z,100683
2017-08-24T14:24:56.982Z,100674
2017-08-24T14:27:27.250Z,100679
2017-08-24T14:29:57.124Z,100691
2017-08-24T14:32:27.334Z,100694
2017-08-24T14:34:57.235Z,100687
2017-08-24T14:37:27.451Z,100693
2017-08-24T14:39:57.341Z,100688
2017-08-24T14:42:27.690Z,100695
2017-08-24T14:44:58.012Z,100704
2017-08-24T14:47:28.258Z,100704
2017-08-24T14:49:58.272Z,100708
2017-08-24T14:52:28.629Z,100710
2017-08-24T14:54:58.522Z,100704
2017-08-24T14:57:30.251Z,100714
2017-08-24T15:00:00.125Z,100711
2017-08-24T15:02:30.532Z,100705
2017-08-24T15:05:00.433Z,100710
2017-08-24T15:07:30.892Z,100707
2017-08-24T15:10:00.769Z,100716
2017-08-24T15:12:31.036Z,100714
2017-08-24T15:15:00.909Z,100701
2017-08-24T15:17:30.806Z,100710
2017-08-24T15:20:01.044Z,100705
2017-08-24T15:22:30.982Z,100710
2017-08-24T15:25:00.909Z,100707
2017-08-24T15:27:31.145Z,100717
2017-08-24T15:30:01.040Z,100699
2017-08-24T15:32:31.308Z,100705
2017-08-24T15:35:01.208Z,100704
2017-08-24T15:37:31.683Z,100694
2017-08-24T15:40:01.566Z,100709
2017-08-24T15:42:31.856Z,100713
2017-08-24T15:45:01.757Z,100720
2017-08-24T15:47:32.135Z,100727
2017-08-24T15:50:02.072Z,100728
2017-08-24T15:52:32.337Z,100732
2017-08-24T15:55:02.215Z,100722
2017-08-24T15:57:32.448Z,100729
2017-08-24T16:00:02.359Z,100729
2017-08-24T16:02:32.693Z,100738
2017-08-24T16:05:02.632Z,100745
2017-08-24T16:07:32.934Z,100734
2017-08-24T16:10:02.832Z,100737
2017-08-24T16:12:33.081Z,100740
2017-08-24T16:15:02.952Z,100732
2017-08-24T16:17:32.891Z,100744
2017-08-24T16:20:03.159Z,100740
2017-08-24T16:22:33.018Z,100747
2017-08-24T16:25:03.340Z,100744
2017-08-24T16:27:33.400Z,100736
2017-08-24T16:30:04.805Z,100747
2017-08-24T16:32:36.841Z,100743
2017-08-24T16:35:08.203Z,100745
2017-08-24T16:37:38.066Z,100753
2017-08-24T16:40:08.353Z,100754
2017-08-24T16:42:38.247Z,100749
2017-08-24T16:45:08.609Z,100744
2017-08-24T16:47:38.450Z,100748
2017-08-24T16:50:08.746Z,100756
2017-08-24T16:52:38.632Z,100718
2017-08-24T16:55:08.917Z,100754
2017-08-24T16:57:38.773Z,100752
2017-08-24T17:00:08.685Z,100759
2017-08-24T17:02:39.008Z,100761
2017-08-24T17:05:08.893Z,100773
2017-08-24T17:07:38.778Z,100764
2017-08-24T17:10:09.208Z,100765
2017-08-24T17:12:39.072Z,100757
2017-08-24T17:15:09.400Z,100760
2017-08-24T17:17:39.342Z,100759
2017-08-24T17:20:09.675Z,100755
2017-08-24T17:22:39.543Z,100764
2017-08-24T17:25:09.866Z,100767
2017-08-24T17:27:39.709Z,100771
2017-08-24T17:30:10.003Z,100774
2017-08-24T17:32:39.889Z,100767
2017-08-24T17:35:09.865Z,100777
2017-08-24T17:37:40.205Z,100777
2017-08-24T17:40:10.092Z,100777
2017-08-24T17:42:40.395Z,100779
2017-08-24T17:45:10.290Z,100776
2017-08-24T17:47:40.567Z,100772
2017-08-24T17:50:10.465Z,100781
2017-08-24T17:52:40.783Z,100781
2017-08-24T17:55:10.661Z,100776
2017-08-24T17:57:41.113Z,100774
2017-08-24T18:00:10.984Z,100777
2017-08-24T18:02:41.229Z,100777
2017-08-24T18:05:11.136Z,100780
2017-08-24T18:07:41.382Z,100788
2017-08-24T18:10:11.645Z,100786
2017-08-24T18:12:41.941Z,100785
2017-08-24T18:15:11.839Z,100792
2017-08-24T18:17:42.188Z,100786
2017-08-24T18:20:12.068Z,100791
2017-08-24T18:22:42.434Z,100798
2017-08-24T18:25:12.324Z,100792
2017-08-24T18:27:42.593Z,100787
2017-08-24T18:30:12.525Z,100794
2017-08-24T18:32:42.902Z,100789
2017-08-24T18:35:12.805Z,100796
2017-08-24T18:37:43.218Z,100794
2017-08-24T18:40:13.090Z,100800
2017-08-24T18:42:43.437Z,100805
2017-08-24T18:45:13.420Z,100811
2017-08-24T18:47:43.815Z,100816
2017-08-24T18:50:13.713Z,100814
2017-08-24T18:52:43.981Z,100809
2017-08-24T18:55:13.886Z,100806
2017-08-24T18:57:43.895Z,100805
2017-08-24T19:00:14.503Z,100812
2017-08-24T19:02:44.461Z,100804
2017-08-24T19:05:14.856Z,100799
2017-08-24T19:07:44.813Z,100811
2017-08-24T19:10:15.256Z,100811
2017-08-24T19:12:45.535Z,100812
2017-08-24T19:15:15.929Z,100806
2017-08-24T19:17:45.883Z,100809
2017-08-24T19:20:17.516Z,100810
2017-08-24T19:22:47.504Z,100815
2017-08-24T19:25:17.952Z,100815
2017-08-24T19:27:47.919Z,100815
2017-08-24T19:30:18.221Z,100812
2017-08-24T19:32:48.244Z,100821
2017-08-24T19:35:18.714Z,100818
2017-08-24T19:37:48.669Z,100816
2017-08-24T19:40:19.064Z,100819
2017-08-24T19:42:49.035Z,100814
2017-08-24T19:45:19.368Z,100819
2017-08-24T19:47:49.337Z,100823
2017-08-24T19:50:19.713Z,100829
2017-08-24T19:52:49.694Z,100826
2017-08-24T19:55:19.965Z,100831
2017-08-24T19:57:50.002Z,100831
2017-08-24T20:00:20.500Z,100833
2017-08-24T20:02:50.532Z,100837
2017-08-24T20:05:20.882Z,100836
2017-08-24T20:07:50.831Z,100843
2017-08-24T20:10:21.144Z,100848
2017-08-24T20:12:51.117Z,100843
2017-08-24T20:15:21.396Z,100849
2017-08-24T20:17:51.343Z,100853
2017-08-24T20:20:21.653Z,100854
2017-08-24T20:22:51.620Z,100854
2017-08-24T20:25:21.876Z,100858
2017-08-24T20:27:51.836Z,100858
2017-08-24T20:30:22.110Z,100854
2017-08-24T20:32:52.031Z,100861
2017-08-24T20:35:22.266Z,100862
2017-08-24T20:37:52.186Z,100861
2017-08-24T20:40:22.457Z,100862
2017-08-24T20:42:52.373Z,100866
2017-08-24T20:45:22.780Z,100863
2017-08-24T20:47:52.696Z,100865
2017-08-24T20:50:23.199Z,100873
2017-08-24T20:52:53.153Z,100876
2017-08-24T20:55:23.553Z,100883
2017-08-24T20:57:53.460Z,100888
2017-08-24T21:00:23.820Z,100885
2017-08-24T21:02:53.731Z,100885
2017-08-24T21:05:23.986Z,100889
2017-08-24T21:07:53.918Z,100891
2017-08-24T21:10:23.812Z,100886
2017-08-24T21:12:54.193Z,100890
2017-08-24T21:15:24.118Z,100896
2017-08-24T21:17:54.805Z,100897
2017-08-24T21:20:24.739Z,100893
2017-08-24T21:22:55.039Z,100897
2017-08-24T21:25:24.957Z,100901
2017-08-24T21:27:54.990Z,100912
2017-08-24T21:30:25.415Z,100898
2017-08-24T21:32:55.280Z,100906
2017-08-24T21:35:25.686Z,100907
2017-08-24T21:37:55.595Z,100907
2017-08-24T21:40:25.936Z,100903
2017-08-24T21:42:55.815Z,100902
2017-08-24T21:45:26.150Z,100901
2017-08-24T21:47:56.066Z,100905
2017-08-24T21:50:27.883Z,100901
2017-08-24T21:52:57.808Z,100909
2017-08-24T21:55:28.268Z,100910
2017-08-24T21:57:58.429Z,100903
2017-08-24T22:00:28.745Z,100906
2017-08-24T22:02:59.882Z,100905
2017-08-24T22:05:30.119Z,100905
2017-08-24T22:08:00.088Z,100912
2017-08-24T22:10:32.038Z,100913
2017-08-24T22:13:02.076Z,100910
2017-08-24T22:15:35.046Z,100914
2017-08-24T22:18:05.150Z,100925
2017-08-24T22:20:35.570Z,100905
2017-08-24T22:23:05.642Z,100908
2017-08-24T22:25:35.889Z,100911
2017-08-24T22:28:05.822Z,100912
2017-08-24T22:30:35.791Z,100910
2017-08-24T22:33:06.040Z,100913
2017-08-24T22:35:35.971Z,100908
2017-08-24T22:38:05.892Z,100912
2017-08-24T22:40:36.106Z,100914
2017-08-24T22:43:05.984Z,100907
2017-08-24T22:45:36.307Z,100911
2017-08-24T22:48:06.198Z,100911
2017-08-24T22:50:36.430Z,100906
2017-08-24T22:53:11.973Z,100904
2017-08-24T22:55:47.930Z,100904
2017-08-24T23:01:29.388Z,100897
2017-08-24T23:03:59.952Z,100900
2017-08-24T23:06:31.519Z,100892
2017-08-24T23:09:01.492Z,100889
2017-08-24T23:11:31.727Z,100896
2017-08-24T23:14:01.666Z,100661
2017-08-24T23:16:31.943Z,100894
2017-08-24T23:19:01.841Z,100901
2017-08-24T23:21:31.791Z,100897
2017-08-24T23:24:02.134Z,100896
2017-08-24T23:26:32.003Z,100898
2017-08-24T23:29:02.287Z,100896
2017-08-24T23:31:32.159Z,100890
2017-08-24T23:34:02.519Z,100896
2017-08-24T23:36:32.379Z,100898
2017-08-24T23:39:02.653Z,100897
2017-08-24T23:41:32.577Z,100900
2017-08-24T23:44:02.876Z,100895
2017-08-24T23:46:32.802Z,100888
2017-08-24T23:49:03.118Z,100899
2017-08-24T23:51:32.976Z,100901
2017-08-24T23:54:02.868Z,100895
2017-08-24T23:56:33.080Z,100891
2017-08-24T23:59:03.069Z,100894
